Terminal Aerodrome Forecast
Issued by NWS Quad Cities IA IL

Home | Current Version | Previous Version | Text Only | Print | Product List | Glossary On
Versions: 1 2 3 4 5 6 7 8 9 10 11 12 13 14 15 16 17 18
000
FTUS43 KDVN 251021 AAA
TAFDBQ
TAF AMD
KDBQ 251021Z 2510/2606 08014KT P6SM OVC035
     FM251200 07014KT P6SM VCSH OVC030
     FM251500 09015G22KT 4SM -RA BR SCT009 OVC015
     FM251800 06014G21KT 6SM BR VCSH OVC020
     FM252100 06017G25KT P6SM OVC025
     FM260000 05012KT P6SM BKN050=

USA.gov is the U.S. government's official web portal to all federal, state and local government web resources and services.